首页
METAR-TAF:

METAR-TAF

机场 :

Evanston-Uinta County Airport (Burns Field)

Evanston, 怀俄明州, 美国

纬度: 41-16-23N, 经度: 111-01-50W, 海拔: 2183米

当前天气观测

该预报发布于46分钟前的20:53 UTC
风速24节,风向西转西南,有时为36节阵风
温度 21°C
湿度 25%
气压 1019 hPa
能見度: 16.1公里
天空无云

METAR: KEVW 192053Z AUTO 25024G36KT 10SM CLR 21/00 A3008 RMK AO2 PK WND 27037/2039 SLP100 T02060000 56012

时间: 15:39 (21:39 UTC)

预报

该预报发布于1小时和27分钟前的20:12 UTC
预报有效从19日的 20点(UTC)到 20日的 18点(UTC)
风速25节,风向西,有时为35节阵风
能見度: 10公里
散云层高于8000英尺
多云层高于22000英尺
从 20日的 0200点(UTC)
风速12节,风向西,有时为18节阵风
能見度: 10公里
多云层高于20000英尺
从 20日的 0500点(UTC)
风速9节,风向西南
能見度: 10公里
散云层高于20000英尺

TAF: KEVW 192012Z 1920/2018 26025G35KT P6SM SCT080 BKN220 FM200200 28012G18KT P6SM BKN200 FM200500 23009KT P6SM SCT200

超过4000个机场的气象观测和天气预报(METAR&TAF报告)。

可查询的气象台以黄色和红色小点在地图上表示。

将鼠标移到小点上方,可查看气象台名称。

然后点击查看天气观测和预报。

如需切换地图:点击带黑十字的绿色按钮放大地图;点击带横线的绿色按钮缩小地图;或者点击绿色箭头查看邻近地区的地图。


METAR-TAF: